createdAt,value
2022-12-31T00:00:29.595Z,1000.74
2022-12-31T00:01:24.878Z,1000.88
2022-12-31T00:02:25.035Z,1000.78
2022-12-31T00:03:24.934Z,1000.84
2022-12-31T00:04:24.944Z,1000.84
2022-12-31T00:05:24.867Z,1000.80
2022-12-31T00:06:24.852Z,1000.78
2022-12-31T00:07:24.815Z,1000.83
2022-12-31T00:08:24.804Z,1000.83
2022-12-31T00:09:24.794Z,1000.88
2022-12-31T00:10:24.828Z,1000.88
2022-12-31T00:11:24.776Z,1000.87
2022-12-31T00:12:24.776Z,1000.90
2022-12-31T00:13:24.781Z,1000.83
2022-12-31T00:14:24.734Z,1000.93
2022-12-31T00:15:24.738Z,1000.79
2022-12-31T00:16:24.785Z,1000.80
2022-12-31T00:17:24.708Z,1000.82
2022-12-31T00:18:24.723Z,1000.75
2022-12-31T00:19:24.808Z,1000.74
2022-12-31T00:20:24.674Z,1000.76
2022-12-31T00:21:24.666Z,1000.74
2022-12-31T00:22:24.666Z,1000.70
2022-12-31T00:23:24.640Z,1000.67
2022-12-31T00:24:24.648Z,1000.65
2022-12-31T00:25:24.633Z,1000.65
2022-12-31T00:26:24.612Z,1000.71
2022-12-31T00:27:24.603Z,1000.70
2022-12-31T00:28:24.659Z,1000.70
2022-12-31T00:29:24.560Z,1000.73
2022-12-31T00:30:24.560Z,1000.69
2022-12-31T00:31:24.562Z,1000.68
2022-12-31T00:32:24.542Z,1000.66
2022-12-31T00:33:24.513Z,1000.68
2022-12-31T00:34:24.557Z,1000.65
2022-12-31T00:35:24.502Z,1000.64
2022-12-31T00:36:24.502Z,1000.69
2022-12-31T00:37:24.481Z,1000.60
2022-12-31T00:38:24.479Z,1000.59
2022-12-31T00:39:24.477Z,1000.65
2022-12-31T00:40:24.454Z,1000.63
2022-12-31T00:41:24.449Z,1000.60
2022-12-31T00:42:24.444Z,1000.58
2022-12-31T00:43:24.439Z,1000.57
2022-12-31T00:44:24.404Z,1000.58
2022-12-31T00:45:24.393Z,1000.61
2022-12-31T00:46:24.415Z,1000.59
2022-12-31T00:47:24.361Z,1000.52
2022-12-31T00:48:24.377Z,1000.47
2022-12-31T00:49:24.370Z,1000.45
2022-12-31T00:50:24.337Z,1000.41
2022-12-31T00:51:24.351Z,1000.37
2022-12-31T00:52:24.316Z,1000.32
2022-12-31T00:53:24.287Z,1000.25
2022-12-31T00:54:25.261Z,1000.24
2022-12-31T00:55:24.293Z,1000.22
2022-12-31T00:56:24.287Z,1000.18
2022-12-31T00:57:24.255Z,1000.23
2022-12-31T00:58:24.278Z,1000.24
2022-12-31T00:59:24.248Z,1000.14
2022-12-31T01:00:24.248Z,1000.13
2022-12-31T01:01:25.227Z,1000.15
2022-12-31T01:02:24.407Z,1000.17
2022-12-31T01:03:24.208Z,1000.18
2022-12-31T01:04:24.178Z,1000.15
2022-12-31T01:05:24.184Z,1000.12
2022-12-31T01:06:25.109Z,1000.11
2022-12-31T01:07:24.142Z,1000.11
2022-12-31T01:08:25.131Z,1000.07
2022-12-31T01:09:24.118Z,1000.06
2022-12-31T01:10:24.125Z,1000.10
2022-12-31T01:11:24.216Z,1000.15
2022-12-31T01:12:24.090Z,1000.09
2022-12-31T01:13:24.106Z,1000.07
2022-12-31T01:14:24.073Z,1000.04
2022-12-31T01:15:24.092Z,1000.11
2022-12-31T01:16:24.074Z,1000.10
2022-12-31T01:17:24.214Z,1000.08
2022-12-31T01:18:24.035Z,1000.08
2022-12-31T01:19:24.093Z,1000.09
2022-12-31T01:20:24.209Z,1000.09
2022-12-31T01:21:23.994Z,1000.19
2022-12-31T01:22:24.009Z,1000.20
2022-12-31T01:23:23.965Z,1000.07
2022-12-31T01:24:23.975Z,1000.07
2022-12-31T01:25:23.958Z,1000.01
2022-12-31T01:26:23.925Z,1000.02
2022-12-31T01:27:23.920Z,1000.02
2022-12-31T01:28:23.945Z,1000.00
2022-12-31T01:29:23.894Z,999.98
2022-12-31T01:30:23.899Z,999.97
2022-12-31T01:31:23.954Z,1000.04
2022-12-31T01:32:23.869Z,999.98
2022-12-31T01:33:23.876Z,999.97
2022-12-31T01:34:23.870Z,999.98
2022-12-31T01:35:23.839Z,999.91
2022-12-31T01:36:26.236Z,1000.00
2022-12-31T01:37:23.799Z,999.98
2022-12-31T01:38:23.788Z,999.96
2022-12-31T01:39:23.804Z,999.94
2022-12-31T01:40:23.772Z,999.86
2022-12-31T01:41:23.758Z,999.84
2022-12-31T01:42:23.781Z,999.85
2022-12-31T01:43:23.740Z,999.86
2022-12-31T01:44:23.753Z,999.89
2022-12-31T01:45:23.728Z,999.95
2022-12-31T01:46:23.733Z,999.93
2022-12-31T01:47:23.706Z,999.94
2022-12-31T01:48:23.680Z,999.92
2022-12-31T01:49:23.670Z,999.93
2022-12-31T01:50:23.656Z,999.98
2022-12-31T01:51:23.821Z,999.98
2022-12-31T01:52:23.696Z,1000.04
2022-12-31T01:53:23.615Z,1000.06
2022-12-31T01:54:23.642Z,1000.01
2022-12-31T01:55:23.619Z,1000.08
2022-12-31T01:56:23.591Z,1000.04
2022-12-31T01:57:23.608Z,999.99
2022-12-31T01:58:23.612Z,1000.11
2022-12-31T01:59:23.559Z,1000.07
2022-12-31T02:00:23.564Z,1000.06
2022-12-31T02:01:23.627Z,1000.06
2022-12-31T02:02:23.700Z,1000.11
2022-12-31T02:03:23.556Z,1000.21
2022-12-31T02:04:23.528Z,1000.15
2022-12-31T02:05:23.506Z,1000.17
2022-12-31T02:06:24.447Z,1000.09
2022-12-31T02:07:23.515Z,1000.13
2022-12-31T02:08:23.453Z,1000.12
2022-12-31T02:09:23.450Z,1000.13
2022-12-31T02:10:23.440Z,1000.10
2022-12-31T02:11:23.447Z,1000.06
2022-12-31T02:12:23.411Z,1000.12
2022-12-31T02:13:23.409Z,1000.06
2022-12-31T02:14:23.388Z,1000.05
2022-12-31T02:15:23.407Z,1000.08
2022-12-31T02:16:23.426Z,999.94
2022-12-31T02:17:23.377Z,999.92
2022-12-31T02:18:23.351Z,999.98
2022-12-31T02:19:23.329Z,1000.00
2022-12-31T02:20:23.308Z,999.77
2022-12-31T02:21:23.330Z,999.90
2022-12-31T02:22:23.338Z,1000.02
2022-12-31T02:23:23.281Z,999.89
2022-12-31T02:24:23.262Z,999.93
2022-12-31T02:25:23.260Z,999.91
2022-12-31T02:26:23.242Z,999.94
2022-12-31T02:27:23.236Z,999.81
2022-12-31T02:28:23.239Z,999.85
2022-12-31T02:29:23.211Z,999.98
2022-12-31T02:30:23.213Z,999.87
2022-12-31T02:31:23.222Z,999.98
2022-12-31T02:32:23.216Z,999.90
2022-12-31T02:33:23.162Z,999.99
2022-12-31T02:34:23.147Z,999.86
2022-12-31T02:35:23.147Z,1000.03
2022-12-31T02:36:23.126Z,999.98
2022-12-31T02:37:23.135Z,1000.03
2022-12-31T02:38:23.124Z,1000.03
2022-12-31T02:39:23.086Z,1000.07
2022-12-31T02:40:24.095Z,1000.22
2022-12-31T02:41:23.067Z,1000.02
2022-12-31T02:42:23.079Z,999.92
2022-12-31T02:43:23.061Z,1000.05
2022-12-31T02:44:23.058Z,1000.01
2022-12-31T02:45:23.026Z,999.96
2022-12-31T02:46:23.058Z,1000.06
2022-12-31T02:47:23.027Z,1000.09
2022-12-31T02:48:23.034Z,1000.24
2022-12-31T02:49:23.003Z,1000.12
2022-12-31T02:50:22.974Z,1000.08
2022-12-31T02:51:22.987Z,1000.06
2022-12-31T02:52:22.954Z,1000.10
2022-12-31T02:53:22.941Z,999.98
2022-12-31T02:54:22.917Z,1000.26
2022-12-31T02:55:22.935Z,1000.09
2022-12-31T02:56:22.935Z,1000.16
2022-12-31T02:57:22.907Z,1000.14
2022-12-31T02:58:22.896Z,1000.19
2022-12-31T02:59:22.878Z,1000.30
2022-12-31T03:00:22.969Z,1000.43
2022-12-31T03:01:22.970Z,1000.31
2022-12-31T03:02:22.924Z,1000.26
2022-12-31T03:03:23.773Z,1000.32
2022-12-31T03:04:22.812Z,1000.30
2022-12-31T03:05:22.811Z,1000.35
2022-12-31T03:06:22.848Z,1000.41
2022-12-31T03:07:22.791Z,1000.56
2022-12-31T03:08:22.760Z,1000.35
2022-12-31T03:09:22.761Z,1000.39
2022-12-31T03:10:22.745Z,1000.26
2022-12-31T03:11:22.770Z,1000.46
2022-12-31T03:12:22.741Z,1000.45
2022-12-31T03:13:22.713Z,1000.53
2022-12-31T03:14:22.703Z,1000.48
2022-12-31T03:15:22.721Z,1000.41
2022-12-31T03:16:22.710Z,1000.38
2022-12-31T03:17:22.692Z,1000.27
2022-12-31T03:18:22.668Z,1000.28
2022-12-31T03:19:22.664Z,1000.34
2022-12-31T03:20:22.635Z,1000.22
2022-12-31T03:21:22.642Z,1000.11
2022-12-31T03:22:22.609Z,1000.10
2022-12-31T03:23:24.326Z,1000.30
2022-12-31T03:24:22.691Z,1000.25
2022-12-31T03:25:22.627Z,1000.24
2022-12-31T03:26:22.578Z,1000.14
2022-12-31T03:27:23.529Z,1000.27
2022-12-31T03:28:22.532Z,1000.23
2022-12-31T03:29:22.570Z,1000.26
2022-12-31T03:30:22.533Z,1000.23
2022-12-31T03:31:22.590Z,1000.30
2022-12-31T03:32:22.510Z,1000.15
2022-12-31T03:33:22.525Z,1000.19
2022-12-31T03:34:22.473Z,1000.18
2022-12-31T03:35:22.473Z,1000.17
2022-12-31T03:36:22.454Z,1000.37
2022-12-31T03:37:22.502Z,1000.27
2022-12-31T03:38:22.427Z,1000.26
2022-12-31T03:39:22.422Z,1000.38
2022-12-31T03:40:22.419Z,1000.40
2022-12-31T03:41:22.410Z,1000.59
2022-12-31T03:42:22.385Z,1000.38
2022-12-31T03:43:22.409Z,1000.46
2022-12-31T03:44:22.363Z,1000.48
2022-12-31T03:45:22.356Z,1000.44
2022-12-31T03:46:23.355Z,1000.41
2022-12-31T03:47:22.329Z,1000.34
2022-12-31T03:48:22.371Z,1000.39
2022-12-31T03:49:22.316Z,1000.42
2022-12-31T03:50:22.284Z,1000.43
2022-12-31T03:51:22.299Z,1000.42
2022-12-31T03:52:22.460Z,1000.63
2022-12-31T03:53:22.287Z,1000.40
2022-12-31T03:54:23.200Z,1000.48
2022-12-31T03:55:22.253Z,1000.48
2022-12-31T03:56:23.215Z,1000.73
2022-12-31T03:57:22.214Z,1000.52
2022-12-31T03:58:22.198Z,1000.07
2022-12-31T03:59:22.191Z,1000.52
2022-12-31T04:00:22.173Z,1000.43
2022-12-31T04:01:22.264Z,1000.54
2022-12-31T04:02:28.577Z,1000.60
2022-12-31T04:03:23.168Z,1000.41
2022-12-31T04:04:23.613Z,1000.53
2022-12-31T04:05:22.129Z,1000.64
2022-12-31T04:06:23.085Z,1000.45
2022-12-31T04:07:22.105Z,1000.52
2022-12-31T04:08:22.113Z,1000.58
2022-12-31T04:09:22.090Z,1000.46
2022-12-31T04:10:22.081Z,1000.50
2022-12-31T04:11:22.066Z,1000.48
2022-12-31T04:12:22.031Z,1000.49
2022-12-31T04:13:22.068Z,1000.40
2022-12-31T04:14:22.833Z,1000.49
2022-12-31T04:15:22.049Z,1000.51
2022-12-31T04:16:22.041Z,1000.43
2022-12-31T04:17:21.997Z,1000.47
2022-12-31T04:18:21.988Z,1000.53
2022-12-31T04:19:21.990Z,1000.34
2022-12-31T04:20:21.960Z,1000.42
2022-12-31T04:21:22.914Z,1000.38
2022-12-31T04:22:21.936Z,1000.44
2022-12-31T04:23:21.926Z,1000.54
2022-12-31T04:24:21.940Z,1000.36
2022-12-31T04:25:21.892Z,1000.38
2022-12-31T04:26:21.897Z,1000.34
2022-12-31T04:27:21.890Z,1000.36
2022-12-31T04:28:21.863Z,1000.21
2022-12-31T04:29:21.859Z,1000.32
2022-12-31T04:30:21.864Z,1000.40
2022-12-31T04:31:22.012Z,1000.24
2022-12-31T04:32:21.824Z,1000.39
2022-12-31T04:33:21.831Z,1000.34
2022-12-31T04:34:21.793Z,1000.44
2022-12-31T04:35:21.813Z,1000.40
2022-12-31T04:36:21.772Z,1000.42
2022-12-31T04:37:21.772Z,1000.41
2022-12-31T04:38:21.754Z,1000.68
2022-12-31T04:39:21.775Z,1000.47
2022-12-31T04:40:21.816Z,1000.66
2022-12-31T04:41:21.718Z,1000.59
2022-12-31T04:42:21.854Z,1000.53
2022-12-31T04:43:21.725Z,1000.56
2022-12-31T04:44:21.735Z,1000.56
2022-12-31T04:45:21.678Z,1000.42
2022-12-31T04:46:22.682Z,1000.66
2022-12-31T04:47:23.838Z,1000.39
2022-12-31T04:48:21.646Z,1000.44
2022-12-31T04:49:21.628Z,1000.68
2022-12-31T04:50:21.630Z,1000.53
2022-12-31T04:51:21.607Z,1000.54
2022-12-31T04:52:21.605Z,1000.44
2022-12-31T04:53:21.591Z,1000.46
2022-12-31T04:54:21.584Z,1000.60
2022-12-31T04:55:21.601Z,1000.71
2022-12-31T04:56:21.547Z,1000.54
2022-12-31T04:57:21.564Z,1000.54
2022-12-31T04:58:21.529Z,1000.52
2022-12-31T04:59:21.922Z,1000.78
2022-12-31T05:00:22.334Z,1000.57
2022-12-31T05:01:21.605Z,1000.57
2022-12-31T05:02:21.812Z,1000.72
2022-12-31T05:03:22.018Z,1000.47
2022-12-31T05:04:21.483Z,1000.42
2022-12-31T05:05:21.521Z,1000.60
2022-12-31T05:06:21.489Z,1000.57
2022-12-31T05:07:21.464Z,1000.63
2022-12-31T05:08:21.422Z,1000.51
2022-12-31T05:09:21.416Z,1000.68
2022-12-31T05:10:22.079Z,1000.49
2022-12-31T05:11:21.383Z,1000.44
2022-12-31T05:12:21.391Z,1000.41
2022-12-31T05:13:21.390Z,1000.70
2022-12-31T05:14:21.365Z,1000.45
2022-12-31T05:15:21.352Z,1000.65
2022-12-31T05:16:21.377Z,1000.56
2022-12-31T05:17:21.316Z,1000.61
2022-12-31T05:18:21.336Z,1000.38
2022-12-31T05:19:21.885Z,1000.48
2022-12-31T05:20:21.285Z,1000.64
2022-12-31T05:21:21.338Z,1000.63
2022-12-31T05:22:21.263Z,1000.63
2022-12-31T05:23:21.748Z,1000.71
2022-12-31T05:24:21.243Z,1000.72
2022-12-31T05:25:22.692Z,1000.61
2022-12-31T05:26:21.948Z,1000.59
2022-12-31T05:27:21.244Z,1000.49
2022-12-31T05:28:21.198Z,1000.42
2022-12-31T05:29:21.181Z,1000.72
2022-12-31T05:30:21.171Z,1000.72
2022-12-31T05:31:21.496Z,1000.69
2022-12-31T05:32:21.464Z,1000.53
2022-12-31T05:33:22.038Z,1000.52
2022-12-31T05:34:21.134Z,1000.65
2022-12-31T05:35:21.355Z,1000.68
2022-12-31T05:36:21.127Z,1000.48
2022-12-31T05:37:21.146Z,1000.60
2022-12-31T05:38:21.152Z,1000.86
2022-12-31T05:39:22.520Z,1000.76
2022-12-31T05:40:21.061Z,1000.81
2022-12-31T05:41:21.053Z,1000.85
2022-12-31T05:42:21.130Z,1000.72
2022-12-31T05:43:21.093Z,1000.71
2022-12-31T05:44:21.161Z,1000.77
2022-12-31T05:45:28.384Z,1001.08
2022-12-31T05:46:22.374Z,1001.01
2022-12-31T05:47:21.079Z,1000.73
2022-12-31T05:48:21.137Z,1000.73
2022-12-31T05:49:21.092Z,1000.69
2022-12-31T05:50:20.962Z,1000.83
2022-12-31T05:51:20.936Z,1001.01
2022-12-31T05:52:20.930Z,1000.78
2022-12-31T05:53:22.359Z,1000.88
2022-12-31T05:54:20.926Z,1000.84
2022-12-31T05:55:22.327Z,1001.03
2022-12-31T05:56:21.829Z,1001.04
2022-12-31T05:57:20.940Z,1001.00
2022-12-31T05:58:20.867Z,1000.80
2022-12-31T05:59:20.837Z,1000.92
2022-12-31T06:00:20.846Z,1000.89
2022-12-31T06:01:20.855Z,1000.96
2022-12-31T06:02:20.828Z,1000.71
2022-12-31T06:03:20.921Z,1001.13
2022-12-31T06:04:20.914Z,1001.23
2022-12-31T06:05:25.946Z,1001.05
2022-12-31T06:06:23.222Z,1001.08
2022-12-31T06:07:20.921Z,1001.15
2022-12-31T06:08:20.743Z,1001.12
2022-12-31T06:09:20.759Z,1001.13
2022-12-31T06:10:20.748Z,1001.12
2022-12-31T06:11:20.700Z,1001.16
2022-12-31T06:12:20.712Z,1001.16
2022-12-31T06:13:20.692Z,1001.16
2022-12-31T06:14:20.699Z,1001.16
2022-12-31T06:15:20.682Z,1001.34
2022-12-31T06:16:20.677Z,1001.31
2022-12-31T06:17:20.669Z,1001.18
2022-12-31T06:18:20.681Z,1001.12
2022-12-31T06:19:20.643Z,1001.34
2022-12-31T06:20:20.615Z,1001.36
2022-12-31T06:21:20.801Z,1001.24
2022-12-31T06:22:20.596Z,1001.31
2022-12-31T06:23:20.587Z,1001.25
2022-12-31T06:24:20.595Z,1001.14
2022-12-31T06:25:20.547Z,1001.24
2022-12-31T06:26:20.547Z,1001.34
2022-12-31T06:27:20.887Z,1001.32
2022-12-31T06:28:20.824Z,1001.40
2022-12-31T06:29:20.497Z,1001.42
2022-12-31T06:30:20.508Z,1001.28
2022-12-31T06:31:20.679Z,1001.42
2022-12-31T06:32:20.478Z,1001.46
2022-12-31T06:33:21.437Z,1001.31
2022-12-31T06:34:20.442Z,1001.36
2022-12-31T06:35:20.435Z,1001.50
2022-12-31T06:36:20.432Z,1001.38
2022-12-31T06:37:20.417Z,1001.42
2022-12-31T06:38:20.398Z,1001.46
2022-12-31T06:39:21.350Z,1001.47
2022-12-31T06:40:20.407Z,1001.59
2022-12-31T06:41:21.812Z,1001.44
2022-12-31T06:42:20.374Z,1001.62
2022-12-31T06:43:20.351Z,1001.62
2022-12-31T06:44:20.346Z,1001.51
2022-12-31T06:45:20.821Z,1001.69
2022-12-31T06:46:20.370Z,1001.64
2022-12-31T06:47:20.742Z,1001.53
2022-12-31T06:48:20.295Z,1001.64
2022-12-31T06:49:20.275Z,1001.63
2022-12-31T06:50:20.278Z,1001.58
2022-12-31T06:51:20.270Z,1001.72
2022-12-31T06:52:20.309Z,1001.76
2022-12-31T06:53:20.275Z,1001.66
2022-12-31T06:54:21.053Z,1001.81
2022-12-31T06:55:20.717Z,1001.64
2022-12-31T06:56:20.204Z,1001.80
2022-12-31T06:57:20.355Z,1001.74
2022-12-31T06:58:20.176Z,1001.56
2022-12-31T06:59:20.467Z,1001.83
2022-12-31T07:00:20.186Z,1001.82
2022-12-31T07:01:20.250Z,1001.61
2022-12-31T07:02:20.186Z,1001.80
2022-12-31T07:03:20.174Z,1001.78
2022-12-31T07:04:20.117Z,1001.71
2022-12-31T07:05:20.088Z,1001.88
2022-12-31T07:06:20.124Z,1001.89
2022-12-31T07:07:20.078Z,1001.79
2022-12-31T07:08:20.095Z,1001.89
2022-12-31T07:09:20.053Z,1001.89
2022-12-31T07:10:25.550Z,1002.00
2022-12-31T07:11:21.025Z,1002.13
2022-12-31T07:12:20.041Z,1001.72
2022-12-31T07:13:20.004Z,1001.93
2022-12-31T07:14:19.991Z,1002.09
2022-12-31T07:15:19.982Z,1002.08
2022-12-31T07:16:20.031Z,1001.64
2022-12-31T07:17:19.964Z,1002.02
2022-12-31T07:18:19.943Z,1002.01
2022-12-31T07:19:19.948Z,1001.99
2022-12-31T07:20:19.945Z,1002.00
2022-12-31T07:21:19.926Z,1002.02
2022-12-31T07:22:19.927Z,1002.05
2022-12-31T07:23:19.898Z,1002.07
2022-12-31T07:24:19.874Z,1002.09
2022-12-31T07:25:19.892Z,1002.19
2022-12-31T07:26:19.866Z,1002.16
2022-12-31T07:27:19.843Z,1001.98
2022-12-31T07:28:19.829Z,1001.80
2022-12-31T07:29:19.822Z,1002.16
2022-12-31T07:30:19.834Z,1002.14
2022-12-31T07:31:19.841Z,1002.21
2022-12-31T07:32:19.778Z,1002.10
2022-12-31T07:33:20.732Z,1002.14
2022-12-31T07:34:19.780Z,1002.17
2022-12-31T07:35:19.789Z,1002.09
2022-12-31T07:36:19.737Z,1002.07
2022-12-31T07:37:19.730Z,1002.26
2022-12-31T07:38:19.717Z,1002.15
2022-12-31T07:39:19.702Z,1002.20
2022-12-31T07:40:19.709Z,1002.05
2022-12-31T07:41:19.711Z,1001.95
2022-12-31T07:42:19.691Z,1002.17
2022-12-31T07:43:19.675Z,1002.01
2022-12-31T07:44:19.648Z,1001.97
2022-12-31T07:45:19.640Z,1002.07
2022-12-31T07:46:19.698Z,1002.07
2022-12-31T07:47:19.621Z,1002.14
2022-12-31T07:48:19.605Z,1002.11
2022-12-31T07:49:19.592Z,1002.00
2022-12-31T07:50:19.608Z,1002.11
2022-12-31T07:51:19.577Z,1002.20
2022-12-31T07:52:19.593Z,1002.19
2022-12-31T07:53:19.543Z,1002.09
2022-12-31T07:54:19.556Z,1002.18
2022-12-31T07:55:19.525Z,1002.03
2022-12-31T07:56:19.609Z,1002.05
2022-12-31T07:57:19.514Z,1002.28
2022-12-31T07:58:19.509Z,1002.20
2022-12-31T07:59:24.074Z,1002.18
2022-12-31T08:00:20.489Z,1002.20
2022-12-31T08:01:19.558Z,1002.23
2022-12-31T08:02:19.568Z,1002.25
2022-12-31T08:03:19.425Z,1002.21
2022-12-31T08:04:19.428Z,1002.29
2022-12-31T08:05:19.409Z,1002.24
2022-12-31T08:06:19.441Z,1002.21
2022-12-31T08:07:19.381Z,1002.19
2022-12-31T08:08:19.391Z,1002.40
2022-12-31T08:09:19.413Z,1002.25
2022-12-31T08:10:19.373Z,1002.24
2022-12-31T08:11:19.353Z,1002.32
2022-12-31T08:12:19.350Z,1002.39
2022-12-31T08:13:19.328Z,1002.34
2022-12-31T08:14:19.310Z,1002.28
2022-12-31T08:15:19.355Z,1002.19
2022-12-31T08:16:19.359Z,1002.28
2022-12-31T08:17:19.289Z,1002.20
2022-12-31T08:18:19.281Z,1002.35
2022-12-31T08:19:19.263Z,1002.31
2022-12-31T08:20:19.244Z,1002.37
2022-12-31T08:21:19.261Z,1002.29
2022-12-31T08:22:19.254Z,1002.46
2022-12-31T08:23:19.230Z,1002.43
2022-12-31T08:24:19.203Z,1002.41
2022-12-31T08:25:19.395Z,1002.40
2022-12-31T08:26:19.184Z,1002.46
2022-12-31T08:27:19.165Z,1002.41
2022-12-31T08:28:19.181Z,1002.50
2022-12-31T08:29:19.144Z,1002.49
2022-12-31T08:30:19.137Z,1002.69
2022-12-31T08:31:19.155Z,1002.39
2022-12-31T08:32:19.116Z,1002.51
2022-12-31T08:33:19.129Z,1002.49
2022-12-31T08:34:19.096Z,1002.58
2022-12-31T08:35:19.086Z,1002.40
2022-12-31T08:36:19.063Z,1002.50
2022-12-31T08:37:19.044Z,1002.44
2022-12-31T08:38:19.059Z,1002.57
2022-12-31T08:39:19.063Z,1002.71
2022-12-31T08:40:19.025Z,1002.63
2022-12-31T08:41:19.029Z,1002.73
2022-12-31T08:42:18.990Z,1002.52
2022-12-31T08:43:18.986Z,1002.43
2022-12-31T08:44:18.999Z,1002.55
2022-12-31T08:45:18.962Z,1002.63
2022-12-31T08:46:19.048Z,1002.79
2022-12-31T08:47:19.038Z,1002.73
2022-12-31T08:48:18.921Z,1002.71
2022-12-31T08:49:18.919Z,1002.74
2022-12-31T08:50:18.952Z,1002.64
2022-12-31T08:51:18.887Z,1002.83
2022-12-31T08:52:18.896Z,1002.55
2022-12-31T08:53:18.877Z,1002.71
2022-12-31T08:54:18.874Z,1002.68
2022-12-31T08:55:18.897Z,1002.58
2022-12-31T08:56:18.836Z,1002.58
2022-12-31T08:57:18.844Z,1002.64
2022-12-31T08:58:18.857Z,1002.77
2022-12-31T08:59:19.754Z,1002.67
2022-12-31T09:00:18.781Z,1002.68
2022-12-31T09:01:18.874Z,1002.59
2022-12-31T09:02:18.789Z,1002.74
2022-12-31T09:03:19.734Z,1002.72
2022-12-31T09:04:18.805Z,1002.66
2022-12-31T09:05:18.723Z,1002.73
2022-12-31T09:06:18.718Z,1002.68
2022-12-31T09:07:18.714Z,1002.66
2022-12-31T09:08:18.696Z,1002.80
2022-12-31T09:09:18.697Z,1002.91
2022-12-31T09:10:18.666Z,1002.94
2022-12-31T09:11:22.924Z,1002.91
2022-12-31T09:12:19.657Z,1002.98
2022-12-31T09:13:18.640Z,1002.99
2022-12-31T09:14:18.671Z,1002.98
2022-12-31T09:15:18.607Z,1003.04
2022-12-31T09:16:18.653Z,1003.27
2022-12-31T09:17:18.607Z,1003.05
2022-12-31T09:18:18.673Z,1003.05
2022-12-31T09:19:18.574Z,1003.17
2022-12-31T09:20:18.554Z,1003.15
2022-12-31T09:21:18.552Z,1003.14
2022-12-31T09:22:18.564Z,1003.19
2022-12-31T09:23:18.540Z,1003.10
2022-12-31T09:24:18.552Z,1003.31
2022-12-31T09:25:18.493Z,1003.30
2022-12-31T09:26:18.514Z,1003.34
2022-12-31T09:27:25.434Z,1003.43
2022-12-31T09:28:19.500Z,1003.49
2022-12-31T09:29:18.455Z,1003.45
2022-12-31T09:30:18.451Z,1003.57
2022-12-31T09:31:18.522Z,1003.65
2022-12-31T09:32:18.438Z,1003.64
2022-12-31T09:33:18.435Z,1003.74
2022-12-31T09:34:18.421Z,1003.69
2022-12-31T09:35:18.388Z,1003.77
2022-12-31T09:36:18.378Z,1003.76
2022-12-31T09:37:18.407Z,1003.73
2022-12-31T09:38:18.361Z,1003.66
2022-12-31T09:39:18.344Z,1003.67
2022-12-31T09:40:18.343Z,1003.75
2022-12-31T09:41:18.350Z,1003.72
2022-12-31T09:42:18.319Z,1003.63
2022-12-31T09:43:18.333Z,1003.71
2022-12-31T09:44:18.290Z,1003.75
2022-12-31T09:45:18.282Z,1003.86
2022-12-31T09:46:18.329Z,1003.84
2022-12-31T09:47:18.294Z,1003.84
2022-12-31T09:48:18.283Z,1003.91
2022-12-31T09:49:18.275Z,1003.79
2022-12-31T09:50:19.172Z,1004.07
2022-12-31T09:51:24.905Z,1003.93
2022-12-31T09:52:19.195Z,1003.85
2022-12-31T09:53:18.182Z,1003.88
2022-12-31T09:54:18.211Z,1003.89
2022-12-31T09:55:18.163Z,1004.02
2022-12-31T09:56:18.143Z,1004.08
2022-12-31T09:57:18.152Z,1003.87
2022-12-31T09:58:18.153Z,1003.98
2022-12-31T09:59:18.108Z,1004.04
2022-12-31T10:00:18.122Z,1003.88
2022-12-31T10:01:18.142Z,1003.97
2022-12-31T10:02:18.347Z,1003.95
2022-12-31T10:03:18.158Z,1003.94
2022-12-31T10:04:18.062Z,1004.06
2022-12-31T10:05:18.086Z,1004.01
2022-12-31T10:06:18.037Z,1003.90
2022-12-31T10:07:18.990Z,1004.00
2022-12-31T10:08:18.008Z,1003.98
2022-12-31T10:09:18.003Z,1004.14
2022-12-31T10:10:17.995Z,1004.14
2022-12-31T10:11:18.005Z,1004.09
2022-12-31T10:12:17.966Z,1003.96
2022-12-31T10:13:17.948Z,1003.97
2022-12-31T10:14:17.950Z,1004.00
2022-12-31T10:15:17.938Z,1004.03
2022-12-31T10:16:18.027Z,1004.10
2022-12-31T10:17:17.910Z,1004.17
2022-12-31T10:18:17.898Z,1004.16
2022-12-31T10:19:17.887Z,1004.07
2022-12-31T10:20:17.881Z,1004.15
2022-12-31T10:21:17.919Z,1004.18
2022-12-31T10:22:17.876Z,1004.15
2022-12-31T10:23:17.836Z,1004.15
2022-12-31T10:24:17.865Z,1004.28
2022-12-31T10:25:17.810Z,1004.14
2022-12-31T10:26:17.830Z,1004.10
2022-12-31T10:27:17.817Z,1004.10
2022-12-31T10:28:17.786Z,1004.03
2022-12-31T10:29:17.802Z,1004.05
2022-12-31T10:30:17.865Z,1004.14
2022-12-31T10:31:17.798Z,1004.16
2022-12-31T10:32:17.763Z,1004.18
2022-12-31T10:33:17.712Z,1004.11
2022-12-31T10:34:17.718Z,1004.27
2022-12-31T10:35:17.703Z,1004.10
2022-12-31T10:36:17.693Z,1004.28
2022-12-31T10:37:18.669Z,1004.15
2022-12-31T10:38:17.681Z,1004.25
2022-12-31T10:39:22.338Z,1004.25
2022-12-31T10:40:18.636Z,1004.24
2022-12-31T10:41:17.643Z,1004.45
2022-12-31T10:42:17.644Z,1004.32
2022-12-31T10:43:17.618Z,1004.24
2022-12-31T10:44:17.600Z,1004.18
2022-12-31T10:45:17.592Z,1004.35
2022-12-31T10:46:22.607Z,1004.28
2022-12-31T10:47:18.577Z,1004.28
2022-12-31T10:48:17.564Z,1004.20
2022-12-31T10:49:17.546Z,1004.26
2022-12-31T10:50:17.592Z,1004.18
2022-12-31T10:51:17.539Z,1004.19
2022-12-31T10:52:17.520Z,1004.27
2022-12-31T10:53:17.518Z,1004.23
2022-12-31T10:54:17.533Z,1004.13
2022-12-31T10:55:17.504Z,1004.07
2022-12-31T10:56:17.484Z,1004.13
2022-12-31T10:57:17.439Z,1004.01
2022-12-31T10:58:17.440Z,1004.10
2022-12-31T10:59:17.428Z,1004.08
2022-12-31T11:00:17.451Z,1004.09
2022-12-31T11:01:17.534Z,1004.12
2022-12-31T11:02:17.664Z,1004.16
2022-12-31T11:03:19.992Z,1003.97
2022-12-31T11:04:18.463Z,1003.96
2022-12-31T11:05:17.413Z,1004.05
2022-12-31T11:06:18.329Z,1003.81
2022-12-31T11:07:17.335Z,1004.05
2022-12-31T11:08:17.325Z,1003.99
2022-12-31T11:09:17.358Z,1004.05
2022-12-31T11:10:17.326Z,1004.11
2022-12-31T11:11:17.312Z,1004.07
2022-12-31T11:12:17.274Z,1003.97
2022-12-31T11:13:18.224Z,1004.14
2022-12-31T11:14:17.261Z,1003.98
2022-12-31T11:15:17.975Z,1003.95
2022-12-31T11:16:17.310Z,1003.91
2022-12-31T11:17:17.244Z,1004.13
2022-12-31T11:18:17.230Z,1004.02
2022-12-31T11:19:17.227Z,1004.03
2022-12-31T11:20:17.195Z,1004.06
2022-12-31T11:21:17.206Z,1004.02
2022-12-31T11:22:17.242Z,1004.07
2022-12-31T11:23:17.179Z,1004.15
2022-12-31T11:24:17.152Z,1004.16
2022-12-31T11:25:17.180Z,1003.97
2022-12-31T11:26:17.132Z,1003.99
2022-12-31T11:27:17.151Z,1004.05
2022-12-31T11:28:17.115Z,1003.98
2022-12-31T11:29:17.137Z,1004.04
2022-12-31T11:30:17.094Z,1004.18
2022-12-31T11:31:17.166Z,1004.05
2022-12-31T11:32:17.083Z,1004.12
2022-12-31T11:33:17.062Z,1004.06
2022-12-31T11:34:17.070Z,1004.11
2022-12-31T11:35:17.037Z,1004.19
2022-12-31T11:36:17.053Z,1004.06
2022-12-31T11:37:17.049Z,1004.06
2022-12-31T11:38:16.997Z,1004.11
2022-12-31T11:39:16.988Z,1004.16
2022-12-31T11:40:16.978Z,1004.09
2022-12-31T11:41:16.985Z,1004.14
2022-12-31T11:42:16.977Z,1004.14
2022-12-31T11:43:16.967Z,1004.03
2022-12-31T11:44:16.944Z,1004.03
2022-12-31T11:45:16.932Z,1004.11
2022-12-31T11:46:16.940Z,1004.04
2022-12-31T11:47:16.934Z,1004.19
2022-12-31T11:48:32.826Z,1004.08
2022-12-31T11:49:17.891Z,1004.16
2022-12-31T11:50:16.863Z,1004.16
2022-12-31T11:51:16.901Z,1004.14
2022-12-31T11:52:21.182Z,1004.17
2022-12-31T11:53:16.872Z,1004.15
2022-12-31T11:54:16.850Z,1004.18
2022-12-31T11:55:16.803Z,1004.21
2022-12-31T11:56:16.799Z,1004.21
2022-12-31T11:57:16.815Z,1004.25
2022-12-31T11:58:16.766Z,1004.26
2022-12-31T11:59:19.600Z,1004.24
2022-12-31T12:00:16.753Z,1004.25
2022-12-31T12:01:16.754Z,1004.29
2022-12-31T12:02:16.753Z,1004.28
2022-12-31T12:03:16.725Z,1004.20
2022-12-31T12:04:16.748Z,1004.23
2022-12-31T12:05:16.693Z,1004.21
2022-12-31T12:06:16.680Z,1004.22
2022-12-31T12:07:16.731Z,1004.28